Darstellungsparameter: Aktuell verwendete Einstellungen:
Skalierung der Graphiken ... ?
xyx+y,   Skalierungsfaktor:      Skalierung: Modus: x, Faktor: 1
Darstellungszeitraum ... ?
Vom - - bis: - -   Zeitraum: 23.11.2020 - 23.11.2020
Min/Max/Avg-Anzeige ... ?
Zeige MMA aktuell
Zeige MMA Monat
Zeige MMA alles
Zeige --A aktuell
Zeige --A Monat
Zeige --A alles
Keine MMA-Anzeige
MMA:
Average (ber die Originaldaten)
MMA-Basis: 23.11.2020 - 23.11.2020
Quicknavigation für Darstellung... ?
Tage:      1T, 2T, 3T, 5T -1T -2T -3T -5T +1T +2T +3T +5T
Wochen: 1W, 2W, 3W -1W -2W -3W +1W +2W +3W
Monate: 1M, 3M, 6M -1M -3M -6M +1M +3M +6M
Jahre:    1J, 3J, 5J, 10J -1J -3J -5J -10J +1J +3J +5J +10J
Nutze für die Darstellung ... ?
Originaldaten oder Mittelwerte auf ...
Stundenbasis Tagesbasis Wochenbasis
Monatsbasis Jahresbasis      Datenbasis: Original-Daten
Darstellen als:
Statistik (Auto) Statistik J:M      Darstellung:

Der gewünschte Datumsbereich war nicht gültig/verfügbar und wurde korrigiert....
Das angegebene Enddatum (13.05.2021 23:59:59) liegt in der Zukunft.
Das angegebene Startdatum (07.05.2021 00:00:00) liegt in der Zukunft.


Zur Graphik,    zurück zur Übersicht aller Sensoren.
 
Tabellarische Datenbersicht: ?
 
Sensor: Nr:Datum:Temp:Abs-Feuchte:Windchill:Wind:
Aussen-T/F 1 23-11-2020 01:00:00 8.1 C 7.41 g/m*3 8.1 C 4.8 km/h
2 23-11-2020 01:05:00 8.1 C 7.41 g/m*3 8.1 C 3.2 km/h
3 23-11-2020 01:10:00 8.1 C 7.49 g/m*3 8.1 C 1.6 km/h
4 23-11-2020 01:15:00 8.1 C 7.49 g/m*3 8.1 C 4.8 km/h
5 23-11-2020 01:20:00 8.1 C 7.41 g/m*3 8.1 C 4.8 km/h
6 23-11-2020 01:25:00 8.1 C 7.49 g/m*3 8.1 C 3.2 km/h
7 23-11-2020 01:30:00 8.1 C 7.41 g/m*3 6.75 C 8.1 km/h
8 23-11-2020 01:35:00 8.1 C 7.41 g/m*3 8.1 C 4.8 km/h
9 23-11-2020 01:40:00 8.1 C 7.41 g/m*3 6.75 C 8.1 km/h
10 23-11-2020 01:45:00 8.1 C 7.41 g/m*3 6.42 C 9.7 km/h
11 23-11-2020 01:50:00 8.1 C 7.41 g/m*3 7.17 C 6.4 km/h
12 23-11-2020 01:55:00 8.1 C 7.41 g/m*3 7.17 C 6.4 km/h
13 23-11-2020 02:00:00 8.1 C 7.41 g/m*3 6.75 C 8.1 km/h
14 23-11-2020 02:05:00 8.1 C 7.41 g/m*3 6.75 C 8.1 km/h
15 23-11-2020 02:10:00 8.1 C 7.41 g/m*3 7.17 C 6.4 km/h
16 23-11-2020 02:15:00 8.1 C 7.41 g/m*3 7.17 C 6.4 km/h
17 23-11-2020 02:20:00 8.1 C 7.41 g/m*3 6.75 C 8.1 km/h
18 23-11-2020 02:25:00 8.1 C 7.41 g/m*3 8.1 C 4.8 km/h
19 23-11-2020 02:30:00 8 C 7.36 g/m*3 6.64 C 8.1 km/h
20 23-11-2020 02:35:00 8 C 7.36 g/m*3 6.64 C 8.1 km/h
21 23-11-2020 02:40:00 7.9 C 7.31 g/m*3 7.9 C 4.8 km/h
22 23-11-2020 02:45:00 7.9 C 7.31 g/m*3 6.18 C 9.7 km/h
23 23-11-2020 02:50:00 8 C 7.36 g/m*3 8 C 4.8 km/h
24 23-11-2020 02:55:00 7.9 C 7.31 g/m*3 6.94 C 6.4 km/h
25 23-11-2020 03:00:00 8 C 7.36 g/m*3 7.06 C 6.4 km/h
Sensor: Nr:Datum:Temp:Abs-Feuchte:Windchill:Wind:
Aussen-T/F 26 23-11-2020 03:05:00 8 C 7.36 g/m*3 7.06 C 6.4 km/h
27 23-11-2020 03:10:00 8 C 7.36 g/m*3 7.06 C 6.4 km/h
28 23-11-2020 03:15:00 8 C 7.36 g/m*3 6.3 C 9.7 km/h
29 23-11-2020 03:20:00 8 C 7.36 g/m*3 6.64 C 8.1 km/h
30 23-11-2020 03:25:00 8 C 7.36 g/m*3 6.64 C 8.1 km/h
31 23-11-2020 03:30:00 8 C 7.36 g/m*3 6.01 C 11.3 km/h
32 23-11-2020 03:35:00 8 C 7.36 g/m*3 6.64 C 8.1 km/h
33 23-11-2020 03:40:00 8 C 7.36 g/m*3 6.64 C 8.1 km/h
34 23-11-2020 03:45:00 7.9 C 7.31 g/m*3 6.52 C 8.1 km/h
35 23-11-2020 03:50:00 8 C 7.36 g/m*3 6.64 C 8.1 km/h
36 23-11-2020 03:55:00 8 C 7.36 g/m*3 8 C 4.8 km/h
37 23-11-2020 04:00:00 7.9 C 7.31 g/m*3 6.52 C 8.1 km/h
38 23-11-2020 04:05:00 7.9 C 7.31 g/m*3 7.9 C 4.8 km/h
39 23-11-2020 04:10:00 7.9 C 7.39 g/m*3 6.94 C 6.4 km/h
40 23-11-2020 04:15:00 7.9 C 7.39 g/m*3 6.52 C 8.1 km/h
41 23-11-2020 04:20:00 7.8 C 7.43 g/m*3 7.8 C 4.8 km/h
42 23-11-2020 04:25:00 7.8 C 7.43 g/m*3 7.8 C 4.8 km/h
43 23-11-2020 04:30:00 7.8 C 7.43 g/m*3 7.8 C 3.2 km/h
44 23-11-2020 04:35:00 7.8 C 7.43 g/m*3 6.83 C 6.4 km/h
45 23-11-2020 04:40:00 7.8 C 7.43 g/m*3 6.83 C 6.4 km/h
46 23-11-2020 04:45:00 7.8 C 7.43 g/m*3 6.83 C 6.4 km/h
47 23-11-2020 04:50:00 7.8 C 7.43 g/m*3 6.83 C 6.4 km/h
48 23-11-2020 04:55:00 7.8 C 7.43 g/m*3 6.83 C 6.4 km/h
49 23-11-2020 05:00:00 7.8 C 7.43 g/m*3 6.4 C 8.1 km/h
50 23-11-2020 05:05:00 7.8 C 7.43 g/m*3 7.8 C 1.6 km/h
Sensor: Nr:Datum:Temp:Abs-Feuchte:Windchill:Wind:
Aussen-T/F 51 23-11-2020 05:10:00 7.8 C 7.43 g/m*3 7.8 C 4.8 km/h
52 23-11-2020 05:15:00 7.9 C 7.47 g/m*3 7.9 C 4.8 km/h
53 23-11-2020 05:20:00 7.9 C 7.39 g/m*3 7.9 C 4.8 km/h
54 23-11-2020 05:25:00 7.8 C 7.35 g/m*3 7.8 C 1.6 km/h
55 23-11-2020 05:30:00 7.8 C 7.35 g/m*3 7.8 C 3.2 km/h
56 23-11-2020 05:35:00 7.8 C 7.35 g/m*3 7.8 C 3.2 km/h
57 23-11-2020 05:40:00 7.8 C 7.35 g/m*3 7.8 C 3.2 km/h
58 23-11-2020 05:45:00 7.8 C 7.35 g/m*3 7.8 C 1.6 km/h
59 23-11-2020 05:50:00 7.8 C 7.43 g/m*3 7.8 C 3.2 km/h
60 23-11-2020 05:55:00 7.8 C 7.43 g/m*3 6.4 C 8.1 km/h
61 23-11-2020 06:00:00 7.8 C 7.43 g/m*3 6.83 C 6.4 km/h
62 23-11-2020 06:05:00 7.8 C 7.43 g/m*3 6.83 C 6.4 km/h
63 23-11-2020 06:10:00 7.8 C 7.43 g/m*3 6.83 C 6.4 km/h
64 23-11-2020 06:15:00 7.8 C 7.43 g/m*3 6.83 C 6.4 km/h
65 23-11-2020 06:20:00 7.8 C 7.43 g/m*3 6.4 C 8.1 km/h
66 23-11-2020 06:25:00 7.8 C 7.43 g/m*3 6.83 C 6.4 km/h
67 23-11-2020 06:30:00 7.8 C 7.43 g/m*3 7.8 C 1.6 km/h
68 23-11-2020 06:35:00 7.8 C 7.43 g/m*3 6.83 C 6.4 km/h
69 23-11-2020 06:40:00 7.8 C 7.43 g/m*3 6.4 C 8.1 km/h
70 23-11-2020 06:45:00 7.8 C 7.43 g/m*3 6.4 C 8.1 km/h
71 23-11-2020 06:50:00 7.8 C 7.43 g/m*3 7.8 C 4.8 km/h
72 23-11-2020 06:55:00 7.7 C 7.38 g/m*3 6.71 C 6.4 km/h
73 23-11-2020 07:00:00 7.7 C 7.38 g/m*3 5.94 C 9.7 km/h
74 23-11-2020 07:05:00 7.7 C 7.38 g/m*3 5.94 C 9.7 km/h
75 23-11-2020 07:10:00 7.7 C 7.38 g/m*3 5.65 C 11.3 km/h
Sensor: Nr:Datum:Temp:Abs-Feuchte:Windchill:Wind:
Aussen-T/F 76 23-11-2020 07:15:00 7.7 C 7.38 g/m*3 5.94 C 9.7 km/h
77 23-11-2020 07:20:00 7.7 C 7.38 g/m*3 5.94 C 9.7 km/h
78 23-11-2020 07:25:00 7.7 C 7.38 g/m*3 6.28 C 8.1 km/h
79 23-11-2020 07:30:00 7.7 C 7.38 g/m*3 6.71 C 6.4 km/h
80 23-11-2020 07:35:00 7.7 C 7.38 g/m*3 6.28 C 8.1 km/h
81 23-11-2020 07:40:00 7.7 C 7.38 g/m*3 6.28 C 8.1 km/h
82 23-11-2020 07:45:00 7.7 C 7.38 g/m*3 6.28 C 8.1 km/h
83 23-11-2020 07:50:00 7.7 C 7.38 g/m*3 6.71 C 6.4 km/h
84 23-11-2020 07:55:00 7.6 C 7.41 g/m*3 6.6 C 6.4 km/h
85 23-11-2020 08:00:00 7.6 C 7.41 g/m*3 6.6 C 6.4 km/h
86 23-11-2020 08:05:00 7.7 C 7.46 g/m*3 6.71 C 6.4 km/h
87 23-11-2020 08:10:00 7.7 C 7.46 g/m*3 6.28 C 8.1 km/h
88 23-11-2020 08:15:00 7.7 C 7.46 g/m*3 6.71 C 6.4 km/h
89 23-11-2020 08:20:00 7.7 C 7.38 g/m*3 6.71 C 6.4 km/h
90 23-11-2020 08:25:00 7.8 C 7.43 g/m*3 6.4 C 8.1 km/h
91 23-11-2020 08:30:00 7.8 C 7.43 g/m*3 5.77 C 11.3 km/h
92 23-11-2020 08:35:00 7.8 C 7.43 g/m*3 6.4 C 8.1 km/h
93 23-11-2020 08:40:00 7.8 C 7.43 g/m*3 6.83 C 6.4 km/h
94 23-11-2020 08:45:00 7.8 C 7.43 g/m*3 6.83 C 6.4 km/h
95 23-11-2020 08:50:00 7.8 C 7.43 g/m*3 7.8 C 3.2 km/h
96 23-11-2020 08:55:00 7.9 C 7.56 g/m*3 7.9 C 4.8 km/h
97 23-11-2020 09:00:00 7.9 C 7.56 g/m*3 6.94 C 6.4 km/h
98 23-11-2020 09:05:00 7.8 C 7.51 g/m*3 7.8 C 4.8 km/h
99 23-11-2020 09:10:00 7.8 C 7.51 g/m*3 7.8 C 4.8 km/h
100 23-11-2020 09:15:00 7.8 C 7.59 g/m*3 6.83 C 6.4 km/h
Sensor: Nr:Datum:Temp:Abs-Feuchte:Windchill:Wind:
Aussen-T/F 101 23-11-2020 09:20:00 7.8 C 7.59 g/m*3 6.83 C 6.4 km/h
102 23-11-2020 09:25:00 7.8 C 7.59 g/m*3 7.8 C 4.8 km/h
103 23-11-2020 09:30:00 7.8 C 7.59 g/m*3 6.4 C 8.1 km/h
104 23-11-2020 09:35:00 7.9 C 7.64 g/m*3 6.18 C 9.7 km/h
105 23-11-2020 09:40:00 7.9 C 7.64 g/m*3 6.94 C 6.4 km/h
106 23-11-2020 09:45:00 7.9 C 7.64 g/m*3 6.94 C 6.4 km/h
107 23-11-2020 09:50:00 8 C 7.69 g/m*3 6.3 C 9.7 km/h
108 23-11-2020 09:55:00 8.1 C 7.74 g/m*3 8.1 C 4.8 km/h
109 23-11-2020 10:00:00 8.1 C 7.74 g/m*3 6.75 C 8.1 km/h
110 23-11-2020 10:05:00 8.2 C 7.79 g/m*3 7.29 C 6.4 km/h
111 23-11-2020 10:10:00 8.2 C 7.7 g/m*3 8.2 C 4.8 km/h
112 23-11-2020 10:15:00 8.3 C 7.75 g/m*3 6.99 C 8.1 km/h
113 23-11-2020 10:20:00 8.3 C 7.75 g/m*3 6.37 C 11.3 km/h
114 23-11-2020 10:25:00 8.3 C 7.75 g/m*3 6.99 C 8.1 km/h
115 23-11-2020 10:30:00 8.3 C 7.75 g/m*3 7.41 C 6.4 km/h
116 23-11-2020 10:35:00 8.3 C 7.75 g/m*3 8.3 C 4.8 km/h
117 23-11-2020 10:40:00 8.3 C 7.67 g/m*3 7.41 C 6.4 km/h
118 23-11-2020 10:45:00 8.3 C 7.67 g/m*3 8.3 C 1.6 km/h
119 23-11-2020 10:50:00 8.4 C 7.8 g/m*3 8.4 C 1.6 km/h
120 23-11-2020 10:55:00 8.4 C 7.72 g/m*3 8.4 C 1.6 km/h
121 23-11-2020 11:00:00 8.5 C 7.77 g/m*3 8.5 C 1.6 km/h
122 23-11-2020 11:05:00 8.6 C 7.82 g/m*3 8.6 C 4.8 km/h
123 23-11-2020 11:10:00 8.7 C 7.87 g/m*3 8.7 C 4.8 km/h
124 23-11-2020 11:15:00 8.7 C 7.87 g/m*3 7.87 C 6.4 km/h
125 23-11-2020 11:20:00 8.8 C 7.83 g/m*3 7.98 C 6.4 km/h
Sensor: Nr:Datum:Temp:Abs-Feuchte:Windchill:Wind:
Aussen-T/F 126 23-11-2020 11:25:00 8.8 C 7.83 g/m*3 8.8 C 4.8 km/h
127 23-11-2020 11:30:00 8.9 C 7.88 g/m*3 8.9 C 3.2 km/h
128 23-11-2020 11:35:00 9 C 7.93 g/m*3 8.21 C 6.4 km/h
129 23-11-2020 11:40:00 9.1 C 7.99 g/m*3 9.1 C 4.8 km/h
130 23-11-2020 11:45:00 9.1 C 7.9 g/m*3 8.33 C 6.4 km/h
131 23-11-2020 11:50:00 9 C 7.85 g/m*3 9 C 4.8 km/h
132 23-11-2020 11:55:00 8.9 C 7.8 g/m*3 8.9 C 3.2 km/h
133 23-11-2020 12:00:00 9 C 7.93 g/m*3 8.21 C 6.4 km/h
134 23-11-2020 12:05:00 9.1 C 7.99 g/m*3 9.1 C 3.2 km/h
135 23-11-2020 12:10:00 9.1 C 7.99 g/m*3 9.1 C 3.2 km/h
136 23-11-2020 12:15:00 9.2 C 7.95 g/m*3 9.2 C 3.2 km/h
137 23-11-2020 12:20:00 9.2 C 7.95 g/m*3 9.2 C 3.2 km/h
138 23-11-2020 12:25:00 9.3 C 8 g/m*3 9.3 C 3.2 km/h
139 23-11-2020 12:30:00 9.3 C 8 g/m*3 9.3 C 4.8 km/h
140 23-11-2020 12:35:00 9.3 C 7.91 g/m*3 8.56 C 6.4 km/h
141 23-11-2020 12:40:00 9.3 C 7.91 g/m*3 8.56 C 6.4 km/h
142 23-11-2020 12:45:00 9.3 C 7.91 g/m*3 9.3 C 3.2 km/h
143 23-11-2020 12:50:00 9.2 C 7.86 g/m*3 9.2 C 0 km/h
144 23-11-2020 12:55:00 9.2 C 7.86 g/m*3 9.2 C 1.6 km/h
145 23-11-2020 13:00:00 9.2 C 7.86 g/m*3 9.2 C 0 km/h
146 23-11-2020 13:05:00 9.2 C 7.86 g/m*3 9.2 C 0 km/h
147 23-11-2020 13:10:00 9.2 C 7.86 g/m*3 9.2 C 0 km/h
148 23-11-2020 13:15:00 9.2 C 7.95 g/m*3 9.2 C 0 km/h
149 23-11-2020 13:20:00 9.3 C 8 g/m*3 9.3 C 0 km/h
150 23-11-2020 13:25:00 9.4 C 8.05 g/m*3 9.4 C 3.2 km/h
Sensor: Nr:Datum:Temp:Abs-Feuchte:Windchill:Wind:
Aussen-T/F 151 23-11-2020 13:30:00 9.5 C 8.01 g/m*3 9.5 C 1.6 km/h
152 23-11-2020 13:35:00 9.6 C 7.97 g/m*3 9.6 C 3.2 km/h
153 23-11-2020 13:40:00 9.7 C 8.02 g/m*3 9.7 C 1.6 km/h
154 23-11-2020 13:45:00 9.7 C 8.02 g/m*3 9.7 C 1.6 km/h
155 23-11-2020 13:50:00 9.8 C 7.98 g/m*3 9.8 C 4.8 km/h
156 23-11-2020 13:55:00 9.8 C 7.98 g/m*3 9.8 C 1.6 km/h
157 23-11-2020 14:00:00 9.8 C 7.98 g/m*3 9.8 C 4.8 km/h
158 23-11-2020 14:05:00 9.8 C 7.98 g/m*3 9.8 C 4.8 km/h
159 23-11-2020 14:10:00 9.8 C 7.98 g/m*3 9.8 C 4.8 km/h
160 23-11-2020 14:15:00 9.8 C 7.98 g/m*3 9.8 C 1.6 km/h
161 23-11-2020 14:20:00 9.8 C 7.98 g/m*3 9.8 C 4.8 km/h
162 23-11-2020 14:25:00 9.8 C 7.98 g/m*3 9.14 C 6.4 km/h
163 23-11-2020 14:30:00 9.7 C 7.93 g/m*3 9.7 C 3.2 km/h
164 23-11-2020 14:35:00 9.7 C 7.93 g/m*3 9.7 C 4.8 km/h
165 23-11-2020 14:40:00 9.7 C 7.93 g/m*3 9.7 C 3.2 km/h
166 23-11-2020 14:45:00 9.7 C 7.93 g/m*3 9.7 C 3.2 km/h
167 23-11-2020 14:50:00 9.7 C 7.93 g/m*3 9.7 C 1.6 km/h
168 23-11-2020 14:55:00 9.8 C 7.98 g/m*3 9.8 C 3.2 km/h
169 23-11-2020 15:00:00 9.8 C 7.98 g/m*3 9.8 C 0 km/h
170 23-11-2020 15:05:00 9.8 C 7.98 g/m*3 9.8 C 3.2 km/h
171 23-11-2020 15:10:00 9.8 C 7.98 g/m*3 9.8 C 0 km/h
172 23-11-2020 15:15:00 9.8 C 7.98 g/m*3 9.8 C 0 km/h
173 23-11-2020 15:20:00 9.7 C 7.93 g/m*3 9.7 C 0 km/h
174 23-11-2020 15:25:00 9.8 C 7.98 g/m*3 9.8 C 0 km/h
175 23-11-2020 15:30:00 9.8 C 7.98 g/m*3 9.8 C 0 km/h
Sensor: Nr:Datum:Temp:Abs-Feuchte:Windchill:Wind:
Aussen-T/F 176 23-11-2020 15:35:00 9.8 C 7.98 g/m*3 9.8 C 0 km/h
177 23-11-2020 15:40:00 9.8 C 7.98 g/m*3 9.8 C 0 km/h
178 23-11-2020 15:45:00 9.7 C 7.93 g/m*3 9.7 C 0 km/h
179 23-11-2020 15:50:00 9.7 C 7.93 g/m*3 9.7 C 0 km/h
180 23-11-2020 15:55:00 9.7 C 7.93 g/m*3 9.7 C 0 km/h
181 23-11-2020 16:00:00 9.6 C 7.88 g/m*3 9.6 C 0 km/h
182 23-11-2020 16:05:00 9.6 C 7.88 g/m*3 9.6 C 0 km/h
183 23-11-2020 16:10:00 9.5 C 7.92 g/m*3 9.5 C 0 km/h
184 23-11-2020 16:15:00 9.4 C 7.87 g/m*3 9.4 C 0 km/h
185 23-11-2020 16:20:00 9.3 C 7.82 g/m*3 9.3 C 0 km/h
186 23-11-2020 16:25:00 9.2 C 7.77 g/m*3 9.2 C 0 km/h
187 23-11-2020 16:30:00 9.2 C 7.77 g/m*3 9.2 C 1.6 km/h
188 23-11-2020 16:35:00 9.1 C 7.81 g/m*3 9.1 C 0 km/h
189 23-11-2020 16:40:00 9.1 C 7.81 g/m*3 9.1 C 0 km/h
190 23-11-2020 16:45:00 9 C 7.76 g/m*3 9 C 0 km/h
191 23-11-2020 16:50:00 8.9 C 7.71 g/m*3 8.9 C 0 km/h
192 23-11-2020 16:55:00 8.9 C 7.8 g/m*3 8.9 C 0 km/h
193 23-11-2020 17:00:00 8.8 C 7.66 g/m*3 8.8 C 0 km/h
194 23-11-2020 17:05:00 8.6 C 7.56 g/m*3 8.6 C 3.2 km/h

Legende:
   Min
   Max


Maximal/Minimal-Werte vom 23.11.2020 - 23.11.2020

Sensor Min Max Avg
Temp
(Aussen-T/F)
7.6 °C
23-11-2020  07:55:00
9.8 °C
23-11-2020  13:50:00
8.47 °C
Abs-Feuchte
(Aussen-T/F)
7.31 g/m*3
23-11-2020  02:40:00
8.05 g/m*3
23-11-2020  13:25:00
7.59 g/m*3
Windchill
(Aussen-T/F)
5.65 C
23-11-2020  07:10:00
9.8 C
23-11-2020  13:50:00
7.87 C

Die Daten stammen von einer Davis Vantage Pro 2 Wetter-Station und werden unter Linux mit der Software wview2wettercgi und aufbereitet. Alle Angaben erfolgen ohne Gewähr für ihre Vollständigkeit oder Richtigkeit.
Kontakt: Rainer Krienke krienke@uni-koblenz.de . Meine Webseiten an der Uni Koblenz oder privat.
Version: $Revision: 0.78 $